Carmona, Texas
Current Conditions -  °F | °C
As of 2:53 AM on Monday 24 Nov 2014 (Local Time) from KLFK Reporting Station
Clear Clear  
Wind Chill: 54°   Ceiling: Unl
Heat Index: 54°   Visibility: 10mi
Dew Point: 41°   Wind: 12mph
Humidity: 62%   Direction: 320°NW
Pressure: 29.84"   Gusts: 17mph
Location:  31.024°N, 94.7686°W
Report Text: KLFK 240853Z AUTO 32010G15KT 10SM CLR 12/05 A2984 RMK AO2 SLP103 T01220050 53036 $
Loading
Personal Weather Stations






























Interactive Weather Map New forecast layout! Learn more

10-Day Weather Forecast

Advertisements
Track Severe Weather on mobile